Anchorville, Michigan
Current Conditions -  °F | °C
As of 7:55 AM on Sunday 23 Nov 2014 (Local Time) from KMTC Reporting Station
Light Rain Light Rain  
Wind Chill: 41°   Ceiling: 5000
Heat Index: 46°   Visibility: 7mi
Dew Point: 45°   Wind: 8mph
Humidity: 99%   Direction: 200°SSW
Pressure: 29.9"   Gusts: NA
Location:  42.69°N, 82.7°W
Report Text: KMTC 231255Z 20007KT 7SM -RA SCT025 BKN050 OVC070 08/07 A2990 RMK SLP136 T00750073
Loading
Personal Weather Stations






























Interactive Weather Map New forecast layout! Learn more

10-Day Weather Forecast

Advertisements
Track Severe Weather on mobile